This is the latest recevied weather packets stored in our database for station/object BMCB-21. If no packets are shown the sender has not sent any weather packets the latest 10 day(s).
| Time | Temp. | Humidity | Pressure | Rain* | Wind** | Luminosity | Snow |
|---|---|---|---|---|---|---|---|
| 1777474210 | 20° C | 30% | 1021 hPa | 0 mm | - | 398 W/m² | - |
| 1777471214 | 20° C | 31% | 1021.1 hPa | 0 mm | - | 476 W/m² | - |
| 1777469410 | 19.44° C | 33% | 1021.3 hPa | 0 mm | - | 510 W/m² | - |
| 1777468813 | 19.44° C | 34% | 1021.4 hPa | 0 mm | - | 520 W/m² | - |
| 1777467611 | 19.44° C | 35% | 1021.3 hPa | 0 mm | - | 541 W/m² | - |
| 1777466412 | 19.44° C | 37% | 1021.5 hPa | 0 mm | - | 551 W/m² | - |
| 1777460411 | 17.78° C | 40% | 1021.9 hPa | 0 mm | - | 571 W/m² | - |
| 1777454412 | 15° C | 45% | 1022 hPa | 0 mm | - | 483 W/m² | - |
| 1777452012 | 13.89° C | 48% | 1022.1 hPa | 0 mm | - | 422 W/m² | - |
| 1777450812 | 12.78° C | 49% | 1022.1 hPa | 0 mm | - | 391 W/m² | - |
| 1777447813 | 11.11° C | 52% | 1022 hPa | 0 mm | - | 309 W/m² | - |
| 1777446612 | 10.56° C | 54% | 1021.9 hPa | 0 mm | - | 269 W/m² | - |
| 1777446012 | 10.56° C | 55% | 1021.9 hPa | 0 mm | - | 238 W/m² | - |
| 1777443615 | 9.44° C | 56% | 1021.8 hPa | 0 mm | - | 167 W/m² | - |
| 1777442413 | 8.89° C | 57% | 1021.8 hPa | 0 mm | - | 126 W/m² | - |
| 1777436415 | 8.33° C | 57% | 1021.3 hPa | 0 mm | - | 0 W/m² | - |
| 1777425614 | 10° C | 61% | 1020.4 hPa | 0 mm | - | 0 W/m² | - |
| 1777423214 | 11.11° C | 59% | 1020.5 hPa | 0 mm | - | 0 W/m² | - |
| 1777422014 | 11.11° C | 58% | 1020.4 hPa | 0 mm | - | 0 W/m² | - |
| 1777410020 | 14.44° C | 49% | 1019.5 hPa | 0 mm | - | 0 W/m² | - |
| 1777409423 | 15° C | 48% | 1019.5 hPa | 0 mm | - | 0 W/m² | - |
| 1777402236 | 17.22° C | 44% | 1018 hPa | 0 mm | - | 0 W/m² | - |
| 1777399815 | 18.33° C | 43% | 1017.6 hPa | 0 mm | - | 17 W/m² | - |
| 1777395016 | 20° C | 42% | 1017.1 hPa | 0 mm | - | 139 W/m² | - |
| 1777386616 | 20° C | 41% | 1017.3 hPa | 0 mm | - | 381 W/m² | - |
* Rain latest hour (hover to see other rain measurements)
** Current wind speed in m/s (hover to see current wind gust speed)